createdAt,value
2023-05-08T00:00:07.184Z,154.76
2023-05-08T00:01:07.224Z,154.35
2023-05-08T00:02:07.172Z,156.27
2023-05-08T00:03:07.309Z,156.52
2023-05-08T00:04:07.323Z,153.25
2023-05-08T00:05:07.259Z,154.07
2023-05-08T00:06:07.247Z,154.13
2023-05-08T00:07:07.262Z,157.45
2023-05-08T00:08:07.206Z,155.42
2023-05-08T00:09:07.202Z,154.91
2023-05-08T00:10:07.264Z,154.46
2023-05-08T00:11:07.245Z,156.24
2023-05-08T00:12:07.235Z,154.48
2023-05-08T00:13:07.268Z,156.61
2023-05-08T00:14:07.246Z,155.89
2023-05-08T00:15:07.599Z,149.88
2023-05-08T00:16:07.261Z,156.38
2023-05-08T00:17:07.301Z,154.08
2023-05-08T00:18:07.299Z,155.10
2023-05-08T00:19:07.251Z,156.21
2023-05-08T00:20:07.264Z,155.95
2023-05-08T00:21:07.297Z,155.08
2023-05-08T00:22:07.300Z,154.59
2023-05-08T00:23:07.312Z,155.20
2023-05-08T00:24:07.286Z,157.39
2023-05-08T00:25:07.292Z,152.04
2023-05-08T00:26:07.360Z,153.52
2023-05-08T00:27:07.304Z,154.21
2023-05-08T00:28:07.407Z,155.21
2023-05-08T00:29:07.345Z,155.53
2023-05-08T00:30:07.360Z,155.61
2023-05-08T00:31:07.376Z,153.27
2023-05-08T00:32:07.421Z,153.82
2023-05-08T00:33:07.423Z,153.13
2023-05-08T00:34:07.358Z,154.48
2023-05-08T00:35:07.496Z,154.19
2023-05-08T00:36:07.424Z,154.03
2023-05-08T00:37:07.418Z,155.63
2023-05-08T00:38:07.390Z,153.88
2023-05-08T00:39:07.425Z,155.04
2023-05-08T00:40:07.464Z,156.22
2023-05-08T00:41:07.455Z,156.66
2023-05-08T00:42:07.462Z,154.90
2023-05-08T00:43:07.450Z,154.38
2023-05-08T00:44:07.469Z,154.66
2023-05-08T00:45:07.474Z,153.71
2023-05-08T00:46:07.562Z,156.67
2023-05-08T00:47:07.540Z,156.37
2023-05-08T00:48:07.531Z,158.00
2023-05-08T00:49:07.537Z,154.92
2023-05-08T00:50:07.565Z,156.84
2023-05-08T00:51:07.630Z,156.46
2023-05-08T00:52:07.585Z,156.56
2023-05-08T00:53:07.648Z,152.36
2023-05-08T00:54:07.631Z,150.93
2023-05-08T00:55:08.059Z,151.63
2023-05-08T00:56:07.624Z,152.65
2023-05-08T00:57:07.634Z,154.28
2023-05-08T00:58:07.652Z,153.91
2023-05-08T00:59:07.657Z,152.19
2023-05-08T01:00:07.712Z,151.84
2023-05-08T01:01:07.751Z,152.55
2023-05-08T01:02:07.684Z,152.67
2023-05-08T01:03:07.764Z,152.75
2023-05-08T01:04:07.713Z,152.07
2023-05-08T01:05:07.720Z,152.48
2023-05-08T01:06:07.709Z,152.49
2023-05-08T01:07:07.751Z,152.30
2023-05-08T01:08:07.748Z,153.71
2023-05-08T01:09:07.761Z,152.07
2023-05-08T01:10:07.778Z,153.49
2023-05-08T01:11:07.767Z,156.63
2023-05-08T01:12:07.767Z,155.97
2023-05-08T01:13:07.885Z,155.64
2023-05-08T01:14:07.802Z,155.61
2023-05-08T01:15:07.817Z,152.41
2023-05-08T01:16:07.834Z,150.27
2023-05-08T01:17:07.856Z,151.85
2023-05-08T01:18:07.850Z,153.24
2023-05-08T01:19:07.865Z,151.46
2023-05-08T01:20:07.871Z,152.92
2023-05-08T01:21:07.882Z,154.75
2023-05-08T01:22:07.885Z,152.93
2023-05-08T01:23:07.895Z,154.37
2023-05-08T01:24:07.914Z,155.33
2023-05-08T01:25:07.975Z,154.13
2023-05-08T01:26:07.961Z,154.83
2023-05-08T01:27:07.941Z,154.58
2023-05-08T01:28:07.988Z,153.71
2023-05-08T01:29:07.968Z,152.30
2023-05-08T01:30:08.004Z,153.37
2023-05-08T01:31:07.975Z,152.02
2023-05-08T01:32:07.977Z,153.11
2023-05-08T01:33:08.081Z,150.18
2023-05-08T01:34:08.101Z,154.86
2023-05-08T01:35:08.044Z,152.57
2023-05-08T01:36:08.056Z,152.20
2023-05-08T01:37:08.069Z,152.80
2023-05-08T01:38:08.086Z,153.39
2023-05-08T01:39:08.095Z,153.61
2023-05-08T01:40:08.133Z,151.92
2023-05-08T01:41:08.091Z,150.79
2023-05-08T01:42:08.110Z,153.17
2023-05-08T01:43:08.117Z,153.93
2023-05-08T01:44:08.154Z,151.91
2023-05-08T01:45:08.158Z,151.25
2023-05-08T01:46:08.206Z,153.64
2023-05-08T01:47:08.222Z,152.00
2023-05-08T01:48:08.260Z,150.94
2023-05-08T01:49:08.223Z,152.78
2023-05-08T01:50:08.309Z,153.05
2023-05-08T01:51:08.271Z,153.05
2023-05-08T01:52:08.261Z,153.92
2023-05-08T01:53:08.305Z,153.46
2023-05-08T01:54:10.119Z,151.77
2023-05-08T01:55:08.292Z,152.71
2023-05-08T01:56:08.306Z,150.06
2023-05-08T01:57:08.342Z,152.19
2023-05-08T01:58:08.307Z,152.38
2023-05-08T01:59:08.376Z,150.54
2023-05-08T02:00:08.350Z,152.88
2023-05-08T02:01:08.413Z,151.61
2023-05-08T02:02:08.386Z,152.53
2023-05-08T02:03:08.423Z,151.57
2023-05-08T02:04:08.453Z,156.72
2023-05-08T02:05:08.405Z,154.66
2023-05-08T02:06:08.455Z,153.72
2023-05-08T02:07:08.466Z,154.98
2023-05-08T02:08:08.506Z,152.98
2023-05-08T02:09:08.510Z,155.38
2023-05-08T02:10:08.524Z,153.41
2023-05-08T02:11:08.515Z,154.84
2023-05-08T02:12:08.516Z,154.00
2023-05-08T02:13:08.588Z,152.60
2023-05-08T02:14:08.545Z,153.51
2023-05-08T02:15:08.573Z,151.24
2023-05-08T02:16:08.610Z,153.20
2023-05-08T02:17:08.612Z,153.19
2023-05-08T02:18:08.660Z,154.58
2023-05-08T02:19:08.654Z,153.28
2023-05-08T02:20:08.653Z,155.34
2023-05-08T02:21:08.653Z,155.25
2023-05-08T02:22:08.722Z,152.86
2023-05-08T02:23:08.673Z,154.74
2023-05-08T02:24:08.742Z,153.60
2023-05-08T02:25:08.753Z,153.41
2023-05-08T02:26:08.762Z,154.63
2023-05-08T02:27:08.774Z,152.74
2023-05-08T02:28:08.767Z,153.38
2023-05-08T02:29:08.767Z,154.08
2023-05-08T02:30:08.794Z,154.56
2023-05-08T02:31:08.802Z,153.67
2023-05-08T02:32:09.665Z,152.43
2023-05-08T02:33:08.873Z,153.45
2023-05-08T02:34:08.854Z,152.71
2023-05-08T02:35:08.889Z,154.04
2023-05-08T02:36:08.858Z,151.99
2023-05-08T02:37:08.882Z,154.11
2023-05-08T02:38:08.915Z,151.69
2023-05-08T02:39:08.907Z,152.95
2023-05-08T02:40:08.943Z,154.13
2023-05-08T02:41:08.936Z,152.66
2023-05-08T02:42:08.962Z,155.08
2023-05-08T02:43:08.976Z,154.10
2023-05-08T02:44:09.017Z,153.10
2023-05-08T02:45:09.033Z,153.85
2023-05-08T02:46:09.072Z,155.14
2023-05-08T02:47:09.072Z,153.28
2023-05-08T02:48:09.099Z,155.35
2023-05-08T02:49:09.100Z,153.08
2023-05-08T02:50:09.170Z,152.84
2023-05-08T02:51:09.137Z,153.33
2023-05-08T02:52:09.206Z,152.93
2023-05-08T02:53:09.179Z,154.01
2023-05-08T02:54:09.206Z,154.80
2023-05-08T02:55:09.209Z,154.30
2023-05-08T02:56:09.217Z,155.32
2023-05-08T02:57:09.222Z,154.35
2023-05-08T02:58:09.269Z,155.89
2023-05-08T02:59:09.247Z,154.09
2023-05-08T03:00:09.343Z,155.68
2023-05-08T03:01:09.315Z,153.12
2023-05-08T03:02:09.319Z,154.20
2023-05-08T03:03:09.378Z,155.75
2023-05-08T03:04:09.335Z,154.16
2023-05-08T03:05:09.623Z,154.55
2023-05-08T03:06:09.382Z,152.63
2023-05-08T03:07:09.373Z,155.95
2023-05-08T03:08:09.408Z,153.84
2023-05-08T03:09:09.434Z,154.24
2023-05-08T03:10:09.466Z,158.01
2023-05-08T03:11:09.498Z,154.25
2023-05-08T03:12:09.505Z,153.95
2023-05-08T03:13:09.550Z,152.47
2023-05-08T03:14:09.489Z,152.19
2023-05-08T03:15:09.544Z,156.51
2023-05-08T03:16:09.629Z,154.97
2023-05-08T03:17:09.558Z,155.12
2023-05-08T03:18:09.594Z,154.63
2023-05-08T03:19:09.628Z,155.19
2023-05-08T03:20:09.662Z,155.32
2023-05-08T03:21:09.630Z,155.34
2023-05-08T03:22:09.676Z,153.59
2023-05-08T03:23:09.697Z,153.87
2023-05-08T03:24:09.718Z,154.95
2023-05-08T03:25:09.713Z,155.92
2023-05-08T03:26:09.744Z,153.55
2023-05-08T03:27:10.148Z,156.74
2023-05-08T03:28:09.744Z,157.34
2023-05-08T03:29:09.775Z,155.27
2023-05-08T03:30:09.923Z,155.56
2023-05-08T03:31:09.846Z,155.95
2023-05-08T03:32:09.819Z,154.22
2023-05-08T03:33:09.873Z,156.25
2023-05-08T03:34:09.860Z,155.80
2023-05-08T03:35:09.924Z,152.62
2023-05-08T03:36:09.919Z,157.28
2023-05-08T03:37:09.922Z,154.23
2023-05-08T03:38:09.936Z,155.72
2023-05-08T03:39:09.986Z,154.92
2023-05-08T03:40:10.007Z,155.62
2023-05-08T03:41:10.026Z,152.93
2023-05-08T03:42:10.029Z,155.01
2023-05-08T03:43:10.040Z,154.75
2023-05-08T03:44:10.105Z,153.81
2023-05-08T03:45:10.046Z,155.88
2023-05-08T03:46:10.107Z,152.68
2023-05-08T03:47:10.147Z,153.26
2023-05-08T03:48:10.153Z,152.41
2023-05-08T03:49:10.152Z,154.20
2023-05-08T03:50:10.303Z,153.50
2023-05-08T03:51:10.166Z,154.98
2023-05-08T03:52:10.195Z,153.45
2023-05-08T03:53:10.201Z,153.86
2023-05-08T03:54:10.226Z,151.47
2023-05-08T03:55:10.237Z,152.42
2023-05-08T03:56:10.266Z,152.30
2023-05-08T03:57:10.269Z,154.81
2023-05-08T03:58:10.287Z,154.92
2023-05-08T03:59:10.276Z,153.13
2023-05-08T04:00:10.496Z,152.60
2023-05-08T04:01:10.313Z,151.38
2023-05-08T04:02:10.400Z,155.09
2023-05-08T04:03:10.497Z,153.93
2023-05-08T04:04:10.406Z,154.41
2023-05-08T04:05:10.681Z,154.67
2023-05-08T04:06:10.399Z,154.28
2023-05-08T04:07:10.426Z,153.47
2023-05-08T04:08:10.454Z,152.49
2023-05-08T04:09:10.454Z,153.54
2023-05-08T04:10:10.679Z,152.17
2023-05-08T04:11:10.495Z,151.61
2023-05-08T04:12:10.509Z,151.57
2023-05-08T04:13:10.560Z,152.64
2023-05-08T04:14:10.538Z,152.11
2023-05-08T04:15:10.562Z,152.74
2023-05-08T04:16:10.619Z,153.86
2023-05-08T04:17:10.780Z,150.07
2023-05-08T04:18:10.672Z,151.30
2023-05-08T04:19:10.675Z,154.90
2023-05-08T04:20:10.653Z,151.24
2023-05-08T04:21:10.669Z,152.43
2023-05-08T04:22:10.695Z,151.90
2023-05-08T04:23:10.716Z,151.48
2023-05-08T04:24:10.742Z,155.22
2023-05-08T04:25:11.222Z,153.85
2023-05-08T04:26:10.732Z,150.26
2023-05-08T04:27:10.803Z,152.82
2023-05-08T04:28:10.781Z,156.69
2023-05-08T04:29:10.790Z,150.95
2023-05-08T04:30:10.819Z,150.79
2023-05-08T04:31:10.818Z,153.39
2023-05-08T04:32:10.937Z,154.62
2023-05-08T04:33:10.973Z,151.09
2023-05-08T04:34:10.859Z,153.10
2023-05-08T04:35:11.459Z,151.77
2023-05-08T04:36:10.867Z,150.00
2023-05-08T04:37:10.916Z,151.86
2023-05-08T04:38:10.886Z,150.59
2023-05-08T04:39:10.920Z,148.04
2023-05-08T04:40:10.942Z,151.82
2023-05-08T04:41:10.959Z,155.18
2023-05-08T04:42:10.970Z,152.91
2023-05-08T04:43:10.989Z,153.93
2023-05-08T04:44:10.987Z,152.54
2023-05-08T04:45:11.212Z,152.87
2023-05-08T04:46:11.061Z,151.20
2023-05-08T04:47:11.050Z,152.06
2023-05-08T04:48:11.064Z,150.42
2023-05-08T04:49:11.102Z,155.42
2023-05-08T04:50:11.115Z,150.68
2023-05-08T04:51:11.092Z,149.84
2023-05-08T04:52:11.129Z,149.88
2023-05-08T04:53:11.120Z,154.70
2023-05-08T04:54:11.147Z,149.87
2023-05-08T04:55:11.368Z,151.06
2023-05-08T04:56:11.173Z,151.06
2023-05-08T04:57:11.200Z,146.15
2023-05-08T04:58:11.222Z,150.42
2023-05-08T04:59:11.227Z,149.62
2023-05-08T05:00:11.266Z,150.91
2023-05-08T05:01:11.385Z,150.16
2023-05-08T05:02:11.278Z,150.33
2023-05-08T05:03:11.407Z,150.88
2023-05-08T05:04:11.424Z,149.97
2023-05-08T05:05:11.714Z,150.28
2023-05-08T05:06:11.335Z,153.83
2023-05-08T05:07:11.389Z,149.71
2023-05-08T05:08:11.392Z,147.56
2023-05-08T05:09:11.379Z,150.03
2023-05-08T05:10:11.440Z,150.81
2023-05-08T05:11:11.411Z,149.68
2023-05-08T05:12:11.720Z,149.40
2023-05-08T05:13:11.499Z,150.46
2023-05-08T05:14:11.455Z,148.51
2023-05-08T05:15:11.583Z,152.12
2023-05-08T05:16:11.562Z,148.92
2023-05-08T05:17:11.526Z,149.83
2023-05-08T05:18:11.608Z,148.38
2023-05-08T05:19:11.636Z,147.50
2023-05-08T05:20:11.564Z,148.41
2023-05-08T05:21:11.592Z,146.26
2023-05-08T05:22:11.608Z,149.95
2023-05-08T05:23:11.622Z,148.07
2023-05-08T05:24:11.654Z,148.00
2023-05-08T05:25:11.992Z,147.63
2023-05-08T05:26:11.775Z,149.25
2023-05-08T05:27:11.694Z,146.67
2023-05-08T05:28:11.704Z,150.16
2023-05-08T05:29:11.739Z,149.74
2023-05-08T05:30:12.052Z,148.68
2023-05-08T05:31:11.768Z,148.79
2023-05-08T05:32:11.787Z,149.24
2023-05-08T05:33:11.842Z,148.26
2023-05-08T05:34:11.803Z,147.59
2023-05-08T05:35:12.048Z,145.92
2023-05-08T05:36:11.918Z,150.51
2023-05-08T05:37:11.914Z,151.39
2023-05-08T05:38:11.900Z,156.75
2023-05-08T05:39:11.932Z,162.40
2023-05-08T05:40:11.976Z,166.04
2023-05-08T05:41:11.946Z,182.94
2023-05-08T05:42:11.976Z,186.92
2023-05-08T05:43:11.980Z,192.71
2023-05-08T05:44:11.959Z,198.98
2023-05-08T05:45:12.096Z,205.94
2023-05-08T05:46:11.988Z,207.74
2023-05-08T05:47:11.998Z,213.75
2023-05-08T05:48:12.181Z,220.27
2023-05-08T05:49:11.987Z,227.24
2023-05-08T05:50:12.318Z,234.83
2023-05-08T05:51:12.031Z,236.67
2023-05-08T05:52:12.067Z,238.52
2023-05-08T05:53:12.135Z,244.06
2023-05-08T05:54:12.058Z,248.04
2023-05-08T05:55:12.682Z,250.00
2023-05-08T05:56:12.119Z,250.00
2023-05-08T05:57:12.141Z,249.73
2023-05-08T05:58:12.187Z,249.25
2023-05-08T05:59:12.296Z,250.00
2023-05-08T06:00:12.344Z,248.42
2023-05-08T06:01:12.376Z,248.79
2023-05-08T06:02:12.604Z,246.98
2023-05-08T06:03:12.657Z,249.23
2023-05-08T06:04:12.700Z,250.00
2023-05-08T06:05:12.777Z,250.14
2023-05-08T06:06:12.750Z,250.00
2023-05-08T06:07:12.658Z,249.66
2023-05-08T06:08:12.794Z,250.00
2023-05-08T06:09:12.732Z,249.72
2023-05-08T06:10:12.857Z,248.31
2023-05-08T06:11:12.797Z,250.00
2023-05-08T06:12:12.841Z,250.00
2023-05-08T06:13:12.990Z,249.90
2023-05-08T06:14:12.949Z,250.00
2023-05-08T06:15:13.196Z,248.72
2023-05-08T06:16:12.946Z,247.92
2023-05-08T06:17:13.076Z,249.52
2023-05-08T06:18:12.990Z,248.54
2023-05-08T06:19:13.035Z,246.88
2023-05-08T06:20:13.086Z,247.98
2023-05-08T06:21:13.026Z,250.00
2023-05-08T06:22:13.036Z,249.30
2023-05-08T06:23:13.035Z,250.00
2023-05-08T06:24:13.052Z,251.52
2023-05-08T06:25:13.289Z,249.31
2023-05-08T06:26:13.085Z,249.73
2023-05-08T06:27:13.335Z,247.69
2023-05-08T06:28:13.073Z,247.91
2023-05-08T06:29:13.095Z,248.52
2023-05-08T06:30:13.073Z,247.96
2023-05-08T06:31:13.188Z,248.63
2023-05-08T06:32:13.107Z,249.19
2023-05-08T06:33:13.088Z,250.00
2023-05-08T06:34:13.114Z,250.00
2023-05-08T06:35:13.361Z,250.00
2023-05-08T06:36:13.081Z,243.56
2023-05-08T06:37:13.292Z,231.38
2023-05-08T06:38:13.124Z,215.89
2023-05-08T06:39:13.074Z,195.04
2023-05-08T06:40:13.132Z,182.89
2023-05-08T06:41:15.153Z,175.18
2023-05-08T06:42:13.099Z,162.95
2023-05-08T06:43:13.212Z,172.40
2023-05-08T06:44:13.124Z,160.35
2023-05-08T06:45:13.299Z,154.85
2023-05-08T06:46:13.219Z,159.03
2023-05-08T06:47:13.180Z,156.71
2023-05-08T06:48:13.190Z,145.24
2023-05-08T06:49:13.321Z,142.52
2023-05-08T06:50:13.236Z,133.90
2023-05-08T06:51:13.253Z,133.42
2023-05-08T06:52:13.448Z,132.77
2023-05-08T06:53:13.292Z,131.22
2023-05-08T06:54:13.312Z,128.96
2023-05-08T06:55:13.490Z,127.26
2023-05-08T06:56:13.406Z,127.08
2023-05-08T06:57:13.938Z,125.82
2023-05-08T06:58:13.389Z,124.64
2023-05-08T06:59:13.489Z,121.60
2023-05-08T07:00:13.527Z,120.14
2023-05-08T07:01:13.511Z,115.86
2023-05-08T07:02:13.511Z,120.47
2023-05-08T07:03:13.593Z,123.60
2023-05-08T07:04:13.586Z,125.75
2023-05-08T07:05:13.791Z,127.90
2023-05-08T07:06:13.560Z,132.56
2023-05-08T07:07:13.593Z,130.97
2023-05-08T07:08:13.635Z,135.01
2023-05-08T07:09:13.645Z,135.81
2023-05-08T07:10:13.581Z,136.87
2023-05-08T07:11:13.568Z,137.50
2023-05-08T07:12:13.586Z,140.41
2023-05-08T07:13:13.785Z,143.58
2023-05-08T07:14:13.591Z,144.92
2023-05-08T07:15:24.837Z,146.87
2023-05-08T07:16:14.592Z,146.98
2023-05-08T07:17:13.554Z,140.69
2023-05-08T07:18:13.677Z,134.17
2023-05-08T07:19:13.528Z,132.79
2023-05-08T07:20:13.590Z,126.82
2023-05-08T07:21:13.535Z,122.26
2023-05-08T07:22:13.559Z,116.37
2023-05-08T07:23:13.519Z,106.74
2023-05-08T07:24:13.505Z,99.83
2023-05-08T07:25:13.804Z,98.53
2023-05-08T07:26:13.484Z,90.46
2023-05-08T07:27:13.471Z,86.68
2023-05-08T07:28:13.529Z,84.49
2023-05-08T07:29:13.492Z,72.81
2023-05-08T07:30:13.469Z,72.87
2023-05-08T07:31:13.492Z,80.66
2023-05-08T07:32:13.461Z,72.39
2023-05-08T07:33:13.570Z,64.12
2023-05-08T07:34:13.477Z,62.83
2023-05-08T07:35:13.911Z,57.82
2023-05-08T07:36:14.250Z,58.52
2023-05-08T07:37:13.606Z,59.27
2023-05-08T07:38:13.751Z,64.25
2023-05-08T07:39:13.602Z,70.39
2023-05-08T07:40:13.685Z,73.44
2023-05-08T07:41:13.700Z,74.25
2023-05-08T07:42:13.636Z,72.48
2023-05-08T07:43:13.824Z,74.92
2023-05-08T07:44:13.796Z,79.63
2023-05-08T07:45:14.060Z,78.93
2023-05-08T07:46:13.723Z,73.30
2023-05-08T07:47:14.000Z,70.34
2023-05-08T07:48:13.847Z,68.82
2023-05-08T07:49:13.882Z,67.77
2023-05-08T07:50:13.845Z,68.67
2023-05-08T07:51:13.857Z,69.30
2023-05-08T07:52:13.882Z,73.91
2023-05-08T07:53:13.944Z,65.05
2023-05-08T07:54:13.959Z,67.88
2023-05-08T07:55:14.877Z,69.85
2023-05-08T07:56:14.003Z,69.20
2023-05-08T07:57:14.032Z,65.44
2023-05-08T07:58:14.079Z,68.03
2023-05-08T07:59:14.107Z,69.54
2023-05-08T08:00:14.145Z,72.37
2023-05-08T08:01:14.138Z,68.43
2023-05-08T08:02:14.213Z,68.56
2023-05-08T08:03:14.315Z,68.45
2023-05-08T08:04:15.420Z,67.16
2023-05-08T08:05:14.398Z,70.56
2023-05-08T08:06:14.238Z,69.12
2023-05-08T08:07:14.306Z,70.80
2023-05-08T08:08:14.324Z,68.95
2023-05-08T08:09:14.339Z,68.51
2023-05-08T08:10:14.376Z,69.68
2023-05-08T08:11:14.445Z,66.58
2023-05-08T08:12:14.439Z,64.96
2023-05-08T08:13:14.510Z,66.68
2023-05-08T08:14:14.515Z,71.40
2023-05-08T08:15:14.632Z,71.56
2023-05-08T08:16:14.521Z,73.41
2023-05-08T08:17:14.599Z,73.99
2023-05-08T08:18:14.607Z,76.11
2023-05-08T08:19:14.664Z,78.33
2023-05-08T08:20:14.630Z,74.90
2023-05-08T08:21:14.634Z,78.43
2023-05-08T08:22:14.672Z,76.42
2023-05-08T08:23:14.677Z,74.10
2023-05-08T08:24:14.722Z,77.18
2023-05-08T08:25:14.953Z,80.68
2023-05-08T08:26:14.743Z,83.67
2023-05-08T08:27:14.787Z,72.52
2023-05-08T08:28:14.804Z,60.78
2023-05-08T08:29:14.811Z,53.94
2023-05-08T08:30:18.062Z,51.47
2023-05-08T08:31:14.859Z,50.07
2023-05-08T08:32:14.843Z,42.31
2023-05-08T08:33:16.318Z,43.21
2023-05-08T08:34:14.911Z,41.33
2023-05-08T08:35:15.168Z,38.67
2023-05-08T08:36:14.871Z,36.99
2023-05-08T08:37:14.873Z,34.13
2023-05-08T08:38:14.825Z,31.65
2023-05-08T08:39:15.411Z,30.88
2023-05-08T08:40:14.854Z,29.48
2023-05-08T08:41:14.784Z,27.83
2023-05-08T08:42:14.814Z,38.10
2023-05-08T08:43:15.267Z,60.93
2023-05-08T08:44:14.792Z,69.39
2023-05-08T08:45:14.964Z,67.39
2023-05-08T08:46:14.860Z,69.50
2023-05-08T08:47:14.736Z,71.73
2023-05-08T08:48:14.774Z,75.55
2023-05-08T08:49:14.734Z,74.87
2023-05-08T08:50:15.254Z,81.69
2023-05-08T08:51:14.797Z,91.99
2023-05-08T08:52:14.743Z,96.43
2023-05-08T08:53:14.711Z,96.91
2023-05-08T08:54:14.713Z,99.83
2023-05-08T08:55:14.829Z,98.18
2023-05-08T08:56:14.713Z,99.55
2023-05-08T08:57:14.657Z,99.53
2023-05-08T08:58:14.793Z,101.51
2023-05-08T08:59:14.719Z,108.37
2023-05-08T09:00:14.647Z,114.66
2023-05-08T09:01:14.695Z,138.02
2023-05-08T09:02:14.889Z,147.15
2023-05-08T09:03:14.819Z,140.32
2023-05-08T09:04:14.777Z,136.10
2023-05-08T09:05:14.927Z,136.55
2023-05-08T09:06:14.736Z,138.02
2023-05-08T09:07:15.413Z,131.57
2023-05-08T09:08:14.764Z,129.21
2023-05-08T09:09:14.805Z,127.53
2023-05-08T09:10:14.870Z,131.14
2023-05-08T09:11:14.830Z,133.62
2023-05-08T09:12:14.858Z,130.28
2023-05-08T09:13:15.232Z,136.49
2023-05-08T09:14:14.926Z,134.64
2023-05-08T09:15:15.183Z,124.10
2023-05-08T09:16:14.991Z,130.67
2023-05-08T09:17:14.949Z,133.16
2023-05-08T09:18:14.996Z,138.83
2023-05-08T09:19:14.970Z,138.34
2023-05-08T09:20:15.248Z,141.04
2023-05-08T09:21:15.348Z,141.62
2023-05-08T09:22:15.032Z,140.37
2023-05-08T09:23:15.134Z,137.90
2023-05-08T09:24:15.078Z,137.39
2023-05-08T09:25:16.021Z,141.62
2023-05-08T09:26:15.063Z,142.74
2023-05-08T09:27:15.071Z,140.01
2023-05-08T09:28:15.081Z,138.61
2023-05-08T09:29:15.079Z,139.04
2023-05-08T09:30:15.112Z,136.26
2023-05-08T09:31:15.185Z,136.53
2023-05-08T09:32:15.258Z,135.08
2023-05-08T09:33:15.905Z,139.16
2023-05-08T09:34:15.118Z,137.15
2023-05-08T09:35:15.340Z,137.90
2023-05-08T09:36:15.304Z,140.67
2023-05-08T09:37:15.174Z,136.55
2023-05-08T09:38:15.126Z,131.50
2023-05-08T09:39:15.179Z,132.71
2023-05-08T09:40:15.175Z,129.35
2023-05-08T09:41:15.946Z,129.19
2023-05-08T09:42:15.123Z,130.45
2023-05-08T09:43:15.335Z,124.30
2023-05-08T09:44:15.191Z,118.88
2023-05-08T09:45:15.360Z,115.41
2023-05-08T09:46:15.194Z,110.27
2023-05-08T09:47:15.157Z,107.11
2023-05-08T09:48:15.172Z,102.21
2023-05-08T09:49:15.147Z,97.06
2023-05-08T09:50:15.313Z,99.59
2023-05-08T09:51:15.145Z,98.55
2023-05-08T09:52:15.191Z,97.77
2023-05-08T09:53:15.351Z,97.44
2023-05-08T09:54:15.136Z,100.38
2023-05-08T09:55:15.219Z,99.72
2023-05-08T09:56:15.162Z,98.83
2023-05-08T09:57:15.161Z,102.60
2023-05-08T09:58:15.310Z,104.76
2023-05-08T09:59:15.143Z,101.01
2023-05-08T10:00:15.368Z,105.15
2023-05-08T10:01:15.272Z,105.31
2023-05-08T10:02:15.150Z,102.37
2023-05-08T10:03:15.160Z,100.54
2023-05-08T10:04:15.218Z,101.21
2023-05-08T10:05:15.146Z,96.41
2023-05-08T10:06:15.166Z,95.54
2023-05-08T10:07:15.173Z,86.13
2023-05-08T10:08:15.166Z,93.73
2023-05-08T10:09:15.159Z,94.75
2023-05-08T10:10:15.243Z,96.93
2023-05-08T10:11:15.221Z,99.24
2023-05-08T10:12:15.226Z,97.46
2023-05-08T10:13:15.150Z,99.19
2023-05-08T10:14:15.135Z,100.40
2023-05-08T10:15:15.171Z,99.43
2023-05-08T10:16:15.197Z,100.66
2023-05-08T10:17:15.202Z,97.54
2023-05-08T10:18:15.115Z,103.37
2023-05-08T10:19:15.110Z,102.10
2023-05-08T10:20:15.298Z,101.04
2023-05-08T10:21:15.185Z,105.98
2023-05-08T10:22:15.190Z,108.41
2023-05-08T10:23:15.241Z,113.12
2023-05-08T10:24:15.267Z,116.61
2023-05-08T10:25:15.344Z,111.61
2023-05-08T10:26:15.433Z,118.19
2023-05-08T10:27:15.520Z,116.19
2023-05-08T10:28:15.507Z,114.23
2023-05-08T10:29:15.695Z,119.02
2023-05-08T10:30:15.894Z,117.12
2023-05-08T10:31:15.842Z,120.17
2023-05-08T10:32:15.761Z,120.52
2023-05-08T10:33:15.814Z,124.19
2023-05-08T10:34:15.875Z,130.86
2023-05-08T10:35:16.009Z,125.25
2023-05-08T10:36:15.991Z,127.22
2023-05-08T10:37:16.070Z,125.49
2023-05-08T10:38:16.045Z,116.36
2023-05-08T10:39:16.053Z,100.13
2023-05-08T10:40:16.305Z,98.75
2023-05-08T10:41:16.145Z,98.86
2023-05-08T10:42:16.074Z,98.37
2023-05-08T10:43:16.164Z,97.99
2023-05-08T10:44:16.073Z,110.23
2023-05-08T10:45:16.050Z,107.63
2023-05-08T10:46:16.082Z,102.14
2023-05-08T10:47:16.839Z,125.32
2023-05-08T10:48:16.071Z,132.53
2023-05-08T10:49:16.101Z,118.63
2023-05-08T10:50:16.197Z,131.97
2023-05-08T10:51:16.097Z,133.79
2023-05-08T10:52:16.050Z,135.10
2023-05-08T10:53:16.069Z,135.26
2023-05-08T10:54:16.055Z,136.09
2023-05-08T10:55:16.063Z,134.37
2023-05-08T10:56:16.064Z,136.88
2023-05-08T10:57:16.067Z,138.05
2023-05-08T10:58:16.078Z,133.98
2023-05-08T10:59:16.007Z,133.85
2023-05-08T11:00:16.266Z,134.69
2023-05-08T11:01:16.160Z,137.95
2023-05-08T11:02:16.062Z,137.11
2023-05-08T11:03:29.946Z,136.50
2023-05-08T11:04:17.100Z,136.69
2023-05-08T11:05:16.041Z,137.59
2023-05-08T11:06:16.049Z,138.37
2023-05-08T11:07:16.003Z,138.35
2023-05-08T11:08:16.001Z,140.91
2023-05-08T11:09:15.972Z,143.98
2023-05-08T11:10:16.075Z,146.50
2023-05-08T11:11:16.058Z,146.88
2023-05-08T11:12:15.989Z,143.93
2023-05-08T11:13:16.007Z,145.12
2023-05-08T11:14:15.959Z,145.67
2023-05-08T11:15:15.951Z,146.34
2023-05-08T11:16:16.001Z,147.97
2023-05-08T11:17:15.924Z,148.94
2023-05-08T11:18:15.924Z,148.38
2023-05-08T11:19:16.010Z,147.56
2023-05-08T11:20:16.034Z,146.58
2023-05-08T11:21:16.077Z,141.23
2023-05-08T11:22:15.897Z,144.95
2023-05-08T11:23:16.369Z,146.97
2023-05-08T11:24:15.884Z,147.69
2023-05-08T11:25:15.873Z,146.13
2023-05-08T11:26:15.847Z,146.83
2023-05-08T11:27:15.904Z,149.59
2023-05-08T11:28:15.857Z,151.72
2023-05-08T11:29:15.866Z,151.80
2023-05-08T11:30:15.844Z,151.62
2023-05-08T11:31:15.867Z,151.60
2023-05-08T11:32:15.847Z,151.87
2023-05-08T11:33:15.811Z,153.87
2023-05-08T11:34:15.804Z,154.18
2023-05-08T11:35:15.773Z,153.03
2023-05-08T11:36:15.804Z,153.91
2023-05-08T11:37:15.864Z,151.46
2023-05-08T11:38:15.776Z,151.14
2023-05-08T11:39:15.808Z,151.53
2023-05-08T11:40:15.815Z,150.61
2023-05-08T11:41:15.750Z,149.51
2023-05-08T11:42:15.749Z,148.99
2023-05-08T11:43:15.750Z,146.41
2023-05-08T11:44:15.795Z,147.88
2023-05-08T11:45:15.759Z,146.61
2023-05-08T11:46:15.753Z,145.42
2023-05-08T11:47:15.936Z,147.16
2023-05-08T11:48:15.805Z,145.41
2023-05-08T11:49:15.787Z,144.39
2023-05-08T11:50:16.126Z,143.69
2023-05-08T11:51:15.732Z,144.53
2023-05-08T11:52:15.769Z,143.86
2023-05-08T11:53:15.719Z,144.45
2023-05-08T11:54:15.726Z,144.67
2023-05-08T11:55:15.743Z,146.70
2023-05-08T11:56:15.715Z,143.25
2023-05-08T11:57:15.735Z,140.03
2023-05-08T11:58:15.779Z,128.54
2023-05-08T11:59:15.723Z,130.67
2023-05-08T12:00:15.929Z,133.71
2023-05-08T12:01:15.715Z,135.01
2023-05-08T12:02:15.739Z,133.00
2023-05-08T12:03:15.955Z,130.29
2023-05-08T12:04:15.841Z,130.04
2023-05-08T12:05:15.671Z,130.49
2023-05-08T12:06:15.692Z,130.17
2023-05-08T12:07:15.720Z,130.77
2023-05-08T12:08:15.728Z,129.59
2023-05-08T12:09:15.718Z,125.64
2023-05-08T12:10:16.443Z,128.38
2023-05-08T12:11:15.709Z,128.10
2023-05-08T12:12:15.701Z,118.81
2023-05-08T12:13:15.715Z,117.51
2023-05-08T12:14:15.694Z,109.14
2023-05-08T12:15:15.736Z,115.34
2023-05-08T12:16:15.704Z,114.67
2023-05-08T12:17:15.766Z,109.48
2023-05-08T12:18:15.797Z,112.34
2023-05-08T12:19:15.711Z,115.51
2023-05-08T12:20:16.330Z,112.47
2023-05-08T12:21:15.713Z,111.78
2023-05-08T12:22:15.718Z,113.92
2023-05-08T12:23:15.717Z,112.92
2023-05-08T12:24:15.728Z,115.85
2023-05-08T12:25:15.870Z,111.88
2023-05-08T12:26:15.770Z,114.29
2023-05-08T12:27:15.857Z,118.64
2023-05-08T12:28:15.717Z,115.68
2023-05-08T12:29:15.709Z,87.34
2023-05-08T12:30:16.506Z,68.07
2023-05-08T12:31:15.710Z,80.90
2023-05-08T12:32:15.719Z,83.62